createdAt,value
2023-04-22T00:00:19.506Z,5.22
2023-04-22T00:02:47.005Z,5.18
2023-04-22T00:05:17.068Z,5.47
2023-04-22T00:07:46.706Z,4.70
2023-04-22T00:10:14.380Z,4.43
2023-04-22T00:12:41.571Z,5.40
2023-04-22T00:15:09.153Z,5.18
2023-04-22T00:17:36.391Z,5.05
2023-04-22T00:20:03.946Z,4.43
2023-04-22T00:22:31.143Z,5.13
2023-04-22T00:24:58.297Z,4.85
2023-04-22T00:27:25.552Z,4.88
2023-04-22T00:29:52.710Z,4.65
2023-04-22T00:32:19.947Z,5.18
2023-04-22T00:34:47.206Z,4.63
2023-04-22T00:37:14.416Z,5.13
2023-04-22T00:39:41.924Z,5.05
2023-04-22T00:42:10.009Z,4.60
2023-04-22T00:44:37.376Z,4.80
2023-04-22T00:47:04.862Z,4.88
2023-04-22T00:49:33.232Z,4.28
2023-04-22T00:52:00.404Z,4.35
2023-04-22T00:54:28.804Z,4.15
2023-04-22T00:56:58.866Z,4.20
2023-04-22T00:59:26.230Z,4.32
2023-04-22T01:01:54.658Z,4.68
2023-04-22T01:04:22.531Z,4.38
2023-04-22T01:06:49.941Z,4.22
2023-04-22T01:09:17.185Z,4.00
2023-04-22T01:11:44.388Z,4.38
2023-04-22T01:14:11.570Z,4.43
2023-04-22T01:16:39.222Z,3.95
2023-04-22T01:19:06.719Z,4.10
2023-04-22T01:21:35.932Z,3.70
2023-04-22T01:24:03.226Z,4.28
2023-04-22T01:26:30.404Z,3.95
2023-04-22T01:28:57.744Z,3.83
2023-04-22T01:31:25.131Z,3.70
2023-04-22T01:33:52.423Z,3.78
2023-04-22T01:36:19.593Z,4.70
2023-04-22T01:38:47.216Z,3.90
2023-04-22T01:41:14.888Z,4.03
2023-04-22T01:43:42.777Z,3.95
2023-04-22T01:46:10.404Z,3.83
2023-04-22T01:48:37.783Z,3.83
2023-04-22T01:51:04.986Z,3.88
2023-04-22T01:53:32.264Z,3.50
2023-04-22T01:56:00.446Z,3.85
2023-04-22T01:58:29.760Z,3.80
2023-04-22T02:00:57.061Z,3.53
2023-04-22T02:03:24.424Z,3.60
2023-04-22T02:05:53.191Z,3.40
2023-04-22T02:08:20.442Z,3.80
2023-04-22T02:10:47.602Z,3.85
2023-04-22T02:13:14.767Z,4.20
2023-04-22T02:15:42.035Z,4.07
2023-04-22T02:18:10.194Z,3.70
2023-04-22T02:20:37.625Z,3.80
2023-04-22T02:23:05.407Z,3.88
2023-04-22T02:25:32.594Z,3.58
2023-04-22T02:27:59.853Z,4.22
2023-04-22T02:30:27.041Z,3.47
2023-04-22T02:32:54.276Z,3.65
2023-04-22T02:35:21.482Z,4.05
2023-04-22T02:37:48.644Z,3.50
2023-04-22T02:40:15.821Z,3.78
2023-04-22T02:42:42.965Z,4.28
2023-04-22T02:45:10.404Z,3.67
2023-04-22T02:47:37.628Z,3.95
2023-04-22T02:50:05.009Z,3.47
2023-04-22T02:52:32.126Z,3.63
2023-04-22T02:54:59.282Z,3.40
2023-04-22T02:57:26.410Z,4.28
2023-04-22T02:59:54.102Z,3.28
2023-04-22T03:02:21.325Z,4.05
2023-04-22T03:04:48.827Z,3.63
2023-04-22T03:07:16.005Z,3.20
2023-04-22T03:09:43.187Z,4.05
2023-04-22T03:12:10.559Z,3.40
2023-04-22T03:14:37.722Z,3.40
2023-04-22T03:17:04.880Z,3.90
2023-04-22T03:19:32.067Z,3.40
2023-04-22T03:21:59.373Z,3.55
2023-04-22T03:24:26.492Z,3.17
2023-04-22T03:26:53.631Z,3.30
2023-04-22T03:29:20.768Z,2.85
2023-04-22T03:31:47.946Z,3.33
2023-04-22T03:34:15.427Z,3.30
2023-04-22T03:36:42.605Z,3.10
2023-04-22T03:39:09.789Z,3.33
2023-04-22T03:41:37.414Z,3.30
2023-04-22T03:44:04.584Z,3.70
2023-04-22T03:46:32.415Z,3.40
2023-04-22T03:48:59.725Z,3.10
2023-04-22T03:51:26.899Z,3.67
2023-04-22T03:53:54.095Z,3.70
2023-04-22T03:56:24.478Z,3.30
2023-04-22T03:58:51.844Z,3.63
2023-04-22T04:01:19.142Z,3.22
2023-04-22T04:03:46.437Z,3.22
2023-04-22T04:06:13.926Z,3.35
2023-04-22T04:08:41.125Z,3.08
2023-04-22T04:11:09.159Z,3.97
2023-04-22T04:13:36.289Z,3.13
2023-04-22T04:16:04.237Z,2.95
2023-04-22T04:18:31.420Z,3.40
2023-04-22T04:20:58.578Z,3.30
2023-04-22T04:23:27.080Z,3.25
2023-04-22T04:25:55.572Z,3.38
2023-04-22T04:28:22.846Z,2.85
2023-04-22T04:30:50.001Z,3.38
2023-04-22T04:33:17.811Z,3.33
2023-04-22T04:35:45.000Z,3.15
2023-04-22T04:38:12.789Z,3.40
2023-04-22T04:40:39.946Z,2.92
2023-04-22T04:43:08.767Z,2.58
2023-04-22T04:45:39.173Z,3.58
2023-04-22T04:48:07.192Z,3.45
2023-04-22T04:50:34.431Z,3.28
2023-04-22T04:53:02.391Z,3.13
2023-04-22T04:55:29.581Z,3.20
2023-04-22T04:57:56.725Z,3.20
2023-04-22T05:00:23.887Z,2.97
2023-04-22T05:02:51.433Z,3.53
2023-04-22T05:05:18.709Z,3.22
2023-04-22T05:07:45.853Z,3.53
2023-04-22T05:10:13.082Z,3.38
2023-04-22T05:12:40.903Z,3.00
2023-04-22T05:15:08.335Z,3.05
2023-04-22T05:17:35.590Z,2.72
2023-04-22T05:20:03.165Z,2.70
2023-04-22T05:22:30.317Z,2.80
2023-04-22T05:24:57.462Z,2.63
2023-04-22T05:27:24.830Z,3.38
2023-04-22T05:29:52.008Z,2.88
2023-04-22T05:32:19.246Z,2.58
2023-04-22T05:34:46.480Z,2.70
2023-04-22T05:37:13.597Z,2.78
2023-04-22T05:39:41.368Z,2.53
2023-04-22T05:42:09.055Z,2.75
2023-04-22T05:44:36.208Z,2.75
2023-04-22T05:47:03.396Z,3.00
2023-04-22T05:49:30.558Z,2.72
2023-04-22T05:51:57.746Z,2.75
2023-04-22T05:54:24.941Z,2.95
2023-04-22T05:56:52.166Z,3.00
2023-04-22T05:59:21.547Z,2.75
2023-04-22T06:01:49.069Z,3.08
2023-04-22T06:04:16.703Z,2.85
2023-04-22T06:06:44.052Z,3.10
2023-04-22T06:09:11.337Z,2.97
2023-04-22T06:11:38.583Z,2.53
2023-04-22T06:14:05.727Z,2.63
2023-04-22T06:16:32.919Z,2.75
2023-04-22T06:19:00.064Z,2.97
2023-04-22T06:21:27.299Z,2.90
2023-04-22T06:23:54.481Z,2.83
2023-04-22T06:26:22.163Z,3.08
2023-04-22T06:28:50.015Z,2.95
2023-04-22T06:31:18.801Z,3.10
2023-04-22T06:33:47.135Z,3.15
2023-04-22T06:36:14.811Z,2.47
2023-04-22T06:38:41.936Z,3.15
2023-04-22T06:41:09.142Z,2.70
2023-04-22T06:43:36.315Z,2.70
2023-04-22T06:46:03.454Z,3.03
2023-04-22T06:48:30.611Z,3.42
2023-04-22T06:50:57.847Z,3.20
2023-04-22T06:53:25.050Z,2.90
2023-04-22T06:55:53.531Z,3.10
2023-04-22T06:58:20.939Z,3.05
2023-04-22T07:00:48.094Z,3.03
2023-04-22T07:03:15.395Z,3.10
2023-04-22T07:05:42.770Z,2.83
2023-04-22T07:08:09.934Z,3.00
2023-04-22T07:10:37.055Z,3.05
2023-04-22T07:13:04.214Z,2.70
2023-04-22T07:15:31.346Z,3.75
2023-04-22T07:17:58.567Z,5.03
2023-04-22T07:20:25.816Z,5.57
2023-04-22T07:22:53.166Z,5.30
2023-04-22T07:25:20.702Z,4.82
2023-04-22T07:27:47.858Z,4.30
2023-04-22T07:30:15.094Z,4.32
2023-04-22T07:32:42.313Z,4.80
2023-04-22T07:35:09.582Z,5.07
2023-04-22T07:37:36.741Z,4.80
2023-04-22T07:40:03.955Z,4.10
2023-04-22T07:42:31.287Z,4.30
2023-04-22T07:44:58.432Z,4.82
2023-04-22T07:47:25.903Z,4.45
2023-04-22T07:49:53.064Z,4.38
2023-04-22T07:52:20.993Z,5.07
2023-04-22T07:54:48.142Z,4.30
2023-04-22T07:57:15.297Z,4.03
2023-04-22T07:59:42.481Z,4.05
2023-04-22T08:02:09.832Z,4.10
2023-04-22T08:04:37.333Z,4.13
2023-04-22T08:07:17.181Z,4.32
2023-04-22T08:09:52.240Z,4.13
2023-04-22T08:12:19.429Z,3.90
2023-04-22T08:14:46.623Z,4.22
2023-04-22T08:17:13.776Z,4.20
2023-04-22T08:19:41.299Z,5.00
2023-04-22T08:22:08.673Z,5.57
2023-04-22T08:24:35.906Z,5.65
2023-04-22T08:27:03.182Z,5.43
2023-04-22T08:29:30.338Z,6.47
2023-04-22T08:31:57.477Z,5.93
2023-04-22T08:34:26.180Z,5.55
2023-04-22T08:36:53.334Z,5.97
2023-04-22T08:39:20.539Z,5.28
2023-04-22T08:41:47.737Z,5.75
2023-04-22T08:44:15.318Z,5.32
2023-04-22T08:46:46.953Z,5.38
2023-04-22T08:49:17.189Z,5.57
2023-04-22T08:51:44.981Z,5.28
2023-04-22T08:54:13.691Z,5.40
2023-04-22T08:56:45.029Z,5.18
2023-04-22T08:59:12.763Z,5.20
2023-04-22T09:01:41.040Z,5.35
2023-04-22T09:04:10.206Z,4.75
2023-04-22T09:06:38.821Z,4.75
2023-04-22T09:09:06.083Z,5.18
2023-04-22T09:11:33.932Z,4.13
2023-04-22T09:14:01.083Z,5.38
2023-04-22T09:16:30.923Z,5.13
2023-04-22T09:18:58.482Z,6.28
2023-04-22T09:21:29.061Z,7.18
2023-04-22T09:23:56.960Z,6.28
2023-04-22T09:26:25.109Z,6.68
2023-04-22T09:28:58.617Z,6.25
2023-04-22T09:31:26.129Z,5.85
2023-04-22T09:33:54.813Z,5.75
2023-04-22T09:36:34.159Z,5.80
2023-04-22T09:39:04.758Z,6.30
2023-04-22T09:41:41.355Z,5.65
2023-04-22T09:44:14.810Z,5.10
2023-04-22T09:46:46.241Z,5.70
2023-04-22T09:49:16.683Z,5.35
2023-04-22T09:51:43.834Z,5.00
2023-04-22T09:54:11.646Z,4.97
2023-04-22T09:56:51.882Z,4.68
2023-04-22T09:59:22.853Z,4.93
2023-04-22T10:01:50.761Z,5.30
2023-04-22T10:04:21.285Z,4.93
2023-04-22T10:06:49.275Z,4.90
2023-04-22T10:09:22.900Z,4.70
2023-04-22T10:11:51.472Z,4.93
2023-04-22T10:14:18.862Z,4.72
2023-04-22T10:16:46.969Z,4.95
2023-04-22T10:19:22.114Z,4.72
2023-04-22T10:21:51.573Z,5.10
2023-04-22T10:24:19.222Z,5.00
2023-04-22T10:26:51.040Z,4.57
2023-04-22T10:29:19.170Z,4.63
2023-04-22T10:31:59.147Z,4.68
2023-04-22T10:34:26.398Z,5.10
2023-04-22T10:36:56.372Z,4.82
2023-04-22T10:39:24.036Z,4.63
2023-04-22T10:41:55.962Z,5.15
2023-04-22T10:44:23.793Z,4.65
2023-04-22T10:46:52.273Z,5.30
2023-04-22T10:49:21.198Z,4.22
2023-04-22T10:51:49.717Z,4.63
2023-04-22T10:54:31.812Z,4.18
2023-04-22T10:57:03.494Z,4.22
2023-04-22T10:59:31.205Z,4.63
2023-04-22T11:02:17.768Z,4.50
2023-04-22T11:04:45.382Z,5.90
2023-04-22T11:07:17.132Z,5.00
2023-04-22T11:09:45.649Z,4.82
2023-04-22T11:12:31.576Z,4.60
2023-04-22T11:14:59.700Z,4.93
2023-04-22T11:17:26.965Z,4.55
2023-04-22T11:19:56.310Z,4.82
2023-04-22T11:22:24.617Z,5.90
2023-04-22T11:24:55.815Z,4.90
2023-04-22T11:27:30.377Z,6.05
2023-04-22T11:30:01.344Z,6.18
2023-04-22T11:32:29.188Z,5.68
2023-04-22T11:34:56.706Z,6.03
2023-04-22T11:37:24.640Z,6.32
2023-04-22T11:40:13.637Z,5.95
2023-04-22T11:42:39.801Z,6.68
2023-04-22T11:45:07.595Z,6.35
2023-04-22T11:47:35.372Z,5.50
2023-04-22T11:50:05.073Z,5.82
2023-04-22T11:52:45.720Z,5.82
2023-04-22T11:55:16.856Z,6.63
2023-04-22T11:57:44.172Z,7.22
2023-04-22T12:00:17.508Z,7.18
2023-04-22T12:02:55.387Z,6.45
2023-04-22T12:05:22.736Z,6.55
2023-04-22T12:07:51.343Z,6.75
2023-04-22T12:10:18.478Z,6.35
2023-04-22T12:12:52.442Z,6.05
2023-04-22T12:15:19.603Z,6.45
2023-04-22T12:17:46.843Z,6.57
2023-04-22T12:20:14.108Z,6.40
2023-04-22T12:22:41.254Z,6.38
2023-04-22T12:25:10.459Z,6.07
2023-04-22T12:27:37.585Z,6.05
2023-04-22T12:30:05.132Z,6.50
2023-04-22T12:32:32.279Z,5.55
2023-04-22T12:34:59.427Z,5.53
2023-04-22T12:37:26.878Z,6.35
2023-04-22T12:39:54.016Z,5.78
2023-04-22T12:42:21.165Z,6.10
2023-04-22T12:44:48.315Z,5.53
2023-04-22T12:47:17.874Z,5.22
2023-04-22T12:49:47.283Z,5.20
2023-04-22T12:52:14.592Z,5.80
2023-04-22T12:54:41.740Z,5.80
2023-04-22T12:57:08.908Z,5.70
2023-04-22T12:59:36.040Z,5.35
2023-04-22T13:02:03.210Z,5.80
2023-04-22T13:04:30.507Z,4.90
2023-04-22T13:06:57.791Z,4.78
2023-04-22T13:09:25.608Z,5.70
2023-04-22T13:11:53.325Z,5.00
2023-04-22T13:14:20.739Z,5.10
2023-04-22T13:16:47.935Z,5.20
2023-04-22T13:19:15.627Z,4.88
2023-04-22T13:21:42.855Z,5.13
2023-04-22T13:24:10.127Z,5.15
2023-04-22T13:26:38.886Z,5.38
2023-04-22T13:29:11.127Z,5.22
2023-04-22T13:31:38.939Z,4.80
2023-04-22T13:34:06.094Z,4.85
2023-04-22T13:36:33.258Z,5.35
2023-04-22T13:39:01.417Z,5.07
2023-04-22T13:41:28.607Z,5.53
2023-04-22T13:43:56.410Z,5.05
2023-04-22T13:46:23.703Z,5.10
2023-04-22T13:48:51.021Z,5.38
2023-04-22T13:51:18.228Z,5.35
2023-04-22T13:53:45.488Z,4.55
2023-04-22T13:56:12.762Z,5.38
2023-04-22T13:58:41.045Z,4.85
2023-04-22T14:01:08.538Z,5.10
2023-04-22T14:03:36.434Z,5.53
2023-04-22T14:06:03.935Z,4.85
2023-04-22T14:08:31.205Z,5.00
2023-04-22T14:10:59.415Z,5.00
2023-04-22T14:13:29.983Z,4.53
2023-04-22T14:15:57.608Z,5.05
2023-04-22T14:18:24.899Z,4.82
2023-04-22T14:20:52.804Z,4.85
2023-04-22T14:23:20.046Z,5.25
2023-04-22T14:25:48.058Z,4.95
2023-04-22T14:28:18.988Z,4.50
2023-04-22T14:30:46.173Z,4.63
2023-04-22T14:33:13.644Z,4.85
2023-04-22T14:35:40.914Z,4.60
2023-04-22T14:38:09.414Z,4.97
2023-04-22T14:40:36.677Z,4.45
2023-04-22T14:43:05.195Z,4.72
2023-04-22T14:45:32.492Z,4.75
2023-04-22T14:47:59.849Z,5.13
2023-04-22T14:50:27.381Z,4.88
2023-04-22T14:52:54.639Z,4.75
2023-04-22T14:55:23.651Z,5.22
2023-04-22T14:57:51.977Z,4.97
2023-04-22T15:00:19.209Z,4.60
2023-04-22T15:02:46.793Z,4.60
2023-04-22T15:05:14.261Z,5.03
2023-04-22T15:07:41.420Z,4.40
2023-04-22T15:10:08.819Z,4.93
2023-04-22T15:12:36.024Z,5.18
2023-04-22T15:15:03.171Z,4.60
2023-04-22T15:17:30.853Z,4.50
2023-04-22T15:19:58.123Z,5.53
2023-04-22T15:22:25.719Z,4.90
2023-04-22T15:24:52.945Z,5.15
2023-04-22T15:27:20.201Z,5.00
2023-04-22T15:29:47.455Z,4.18
2023-04-22T15:32:14.620Z,4.10
2023-04-22T15:34:41.774Z,4.60
2023-04-22T15:37:08.949Z,4.10
2023-04-22T15:39:36.097Z,4.22
2023-04-22T15:42:03.413Z,3.80
2023-04-22T15:44:30.779Z,4.50
2023-04-22T15:46:59.460Z,4.45
2023-04-22T15:49:26.763Z,3.92
2023-04-22T15:51:54.461Z,3.90
2023-04-22T15:54:21.637Z,4.28
2023-04-22T15:56:48.778Z,4.53
2023-04-22T15:59:15.980Z,4.45
2023-04-22T16:01:45.781Z,4.43
2023-04-22T16:04:13.789Z,4.13
2023-04-22T16:06:41.506Z,4.22
2023-04-22T16:09:08.706Z,4.30
2023-04-22T16:11:42.195Z,4.18
2023-04-22T16:14:10.878Z,4.20
2023-04-22T16:16:40.362Z,4.35
2023-04-22T16:19:08.433Z,4.30
2023-04-22T16:21:35.815Z,4.50
2023-04-22T16:24:03.027Z,3.55
2023-04-22T16:26:30.204Z,3.70
2023-04-22T16:28:57.708Z,4.07
2023-04-22T16:31:25.213Z,4.15
2023-04-22T16:33:52.686Z,4.45
2023-04-22T16:36:19.864Z,3.65
2023-04-22T16:38:47.032Z,3.47
2023-04-22T16:41:15.332Z,4.30
2023-04-22T16:43:42.575Z,4.30
2023-04-22T16:46:09.870Z,3.90
2023-04-22T16:48:37.056Z,3.78
2023-04-22T16:51:04.368Z,3.92
2023-04-22T16:53:31.719Z,3.58
2023-04-22T16:55:58.855Z,4.25
2023-04-22T16:58:26.933Z,3.67
2023-04-22T17:00:54.160Z,3.55
2023-04-22T17:03:21.803Z,3.92
2023-04-22T17:05:49.018Z,4.43
2023-04-22T17:08:16.420Z,4.40
2023-04-22T17:10:45.338Z,4.32
2023-04-22T17:13:13.628Z,4.68
2023-04-22T17:15:41.066Z,4.10
2023-04-22T17:18:08.352Z,3.88
2023-04-22T17:20:36.476Z,4.00
2023-04-22T17:23:04.108Z,3.58
2023-04-22T17:25:31.410Z,3.40
2023-04-22T17:27:58.655Z,3.90
2023-04-22T17:30:25.786Z,3.63
2023-04-22T17:32:53.103Z,3.80
2023-04-22T17:35:20.464Z,3.83
2023-04-22T17:37:47.700Z,3.70
2023-04-22T17:40:15.011Z,3.88
2023-04-22T17:42:46.340Z,3.90
2023-04-22T17:45:13.927Z,3.65
2023-04-22T17:47:41.216Z,4.07
2023-04-22T17:50:08.798Z,3.90
2023-04-22T17:52:36.109Z,3.58
2023-04-22T17:55:03.330Z,3.90
2023-04-22T17:57:31.124Z,3.55
2023-04-22T17:59:58.309Z,3.58
2023-04-22T18:02:25.650Z,4.00
2023-04-22T18:04:53.183Z,3.50
2023-04-22T18:07:20.415Z,4.00
2023-04-22T18:09:49.516Z,3.78
2023-04-22T18:12:16.859Z,3.50
2023-04-22T18:14:44.200Z,3.83
2023-04-22T18:17:12.546Z,3.70
2023-04-22T18:19:39.912Z,3.60
2023-04-22T18:22:07.360Z,3.70
2023-04-22T18:24:34.603Z,3.40
2023-04-22T18:27:02.753Z,3.58
2023-04-22T18:29:29.883Z,3.70
2023-04-22T18:31:57.350Z,3.92
2023-04-22T18:34:24.535Z,3.50
2023-04-22T18:36:51.693Z,5.03
2023-04-22T18:39:18.821Z,3.95
2023-04-22T18:41:46.058Z,4.03
2023-04-22T18:44:13.493Z,3.22
2023-04-22T18:46:40.746Z,3.80
2023-04-22T18:49:07.961Z,3.38
2023-04-22T18:51:35.108Z,3.25
2023-04-22T18:54:02.515Z,3.60
2023-04-22T18:56:32.693Z,3.13
2023-04-22T18:59:00.223Z,3.50
2023-04-22T19:01:27.713Z,3.45
2023-04-22T19:03:55.033Z,3.55
2023-04-22T19:06:22.426Z,3.45
2023-04-22T19:08:51.690Z,3.63
2023-04-22T19:11:18.889Z,3.60
2023-04-22T19:13:46.316Z,3.47
2023-04-22T19:16:13.590Z,4.18
2023-04-22T19:18:41.204Z,3.80
2023-04-22T19:21:08.445Z,3.60
2023-04-22T19:23:36.463Z,3.50
2023-04-22T19:26:04.371Z,3.30
2023-04-22T19:28:31.508Z,3.28
2023-04-22T19:31:00.875Z,3.22
2023-04-22T19:33:28.304Z,3.38
2023-04-22T19:35:55.448Z,3.10
2023-04-22T19:38:24.067Z,3.20
2023-04-22T19:40:51.521Z,3.92
2023-04-22T19:43:19.299Z,4.57
2023-04-22T19:45:46.540Z,4.32
2023-04-22T19:48:13.906Z,4.20
2023-04-22T19:50:43.182Z,4.55
2023-04-22T19:53:11.103Z,4.18
2023-04-22T19:55:38.841Z,4.65
2023-04-22T19:58:06.637Z,4.60
2023-04-22T20:00:34.871Z,4.72
2023-04-22T20:03:02.523Z,3.88
2023-04-22T20:05:29.944Z,3.88
2023-04-22T20:08:01.735Z,4.32
2023-04-22T20:10:29.265Z,4.00
2023-04-22T20:12:56.476Z,4.53
2023-04-22T20:15:24.353Z,4.18
2023-04-22T20:17:51.786Z,4.30
2023-04-22T20:20:19.414Z,4.30
2023-04-22T20:22:46.737Z,4.30
2023-04-22T20:25:19.948Z,3.92
2023-04-22T20:27:47.278Z,4.43
2023-04-22T20:30:14.675Z,4.13
2023-04-22T20:32:42.390Z,4.45
2023-04-22T20:35:14.796Z,4.13
2023-04-22T20:37:42.194Z,4.55
2023-04-22T20:40:09.677Z,3.70
2023-04-22T20:42:37.015Z,4.00
2023-04-22T20:45:05.535Z,4.00
2023-04-22T20:47:32.966Z,3.80
2023-04-22T20:50:00.646Z,4.30
2023-04-22T20:52:27.906Z,3.90
2023-04-22T20:54:56.410Z,4.40
2023-04-22T20:57:23.781Z,3.78
2023-04-22T20:59:50.981Z,3.97
2023-04-22T21:02:18.704Z,4.60
2023-04-22T21:04:46.060Z,4.10
2023-04-22T21:07:14.241Z,4.20
2023-04-22T21:09:41.676Z,4.00
2023-04-22T21:12:10.664Z,4.20
2023-04-22T21:14:41.630Z,4.22
2023-04-22T21:17:25.581Z,4.22
2023-04-22T21:19:55.432Z,4.55
2023-04-22T21:22:24.161Z,4.18
2023-04-22T21:24:52.173Z,4.03
2023-04-22T21:27:19.900Z,4.03
2023-04-22T21:29:47.667Z,4.35
2023-04-22T21:32:15.210Z,3.90
2023-04-22T21:34:42.643Z,3.85
2023-04-22T21:37:10.219Z,3.65
2023-04-22T21:39:37.451Z,3.53
2023-04-22T21:42:08.552Z,4.47
2023-04-22T21:44:38.125Z,3.92
2023-04-22T21:47:06.408Z,4.30
2023-04-22T21:49:33.641Z,3.42
2023-04-22T21:52:01.384Z,3.42
2023-04-22T21:54:28.570Z,3.33
2023-04-22T21:56:57.672Z,3.42
2023-04-22T21:59:24.864Z,3.40
2023-04-22T22:01:52.347Z,3.55
2023-04-22T22:04:19.644Z,3.90
2023-04-22T22:06:46.871Z,3.60
2023-04-22T22:09:14.266Z,3.88
2023-04-22T22:11:41.433Z,3.88
2023-04-22T22:14:08.639Z,3.40
2023-04-22T22:16:36.049Z,3.80
2023-04-22T22:19:04.608Z,3.55
2023-04-22T22:21:32.831Z,3.58
2023-04-22T22:24:00.242Z,3.78
2023-04-22T22:26:27.952Z,3.50
2023-04-22T22:28:55.232Z,3.40
2023-04-22T22:31:22.389Z,3.30
2023-04-22T22:33:49.606Z,3.42
2023-04-22T22:36:16.740Z,3.13
2023-04-22T22:38:43.894Z,3.42
2023-04-22T22:41:11.026Z,3.45
2023-04-22T22:43:38.217Z,3.30
2023-04-22T22:46:05.500Z,3.58
2023-04-22T22:48:32.748Z,3.45
2023-04-22T22:50:59.955Z,3.20
2023-04-22T22:53:27.429Z,2.97
2023-04-22T22:55:54.564Z,3.55
2023-04-22T22:58:21.703Z,3.70
2023-04-22T23:00:49.001Z,3.78
2023-04-22T23:03:19.158Z,3.53
2023-04-22T23:05:46.958Z,4.25
2023-04-22T23:08:14.756Z,3.17
2023-04-22T23:10:42.018Z,3.15
2023-04-22T23:13:09.156Z,3.40
2023-04-22T23:15:36.528Z,3.53
2023-04-22T23:18:03.950Z,3.83
2023-04-22T23:20:31.351Z,3.83
2023-04-22T23:22:58.687Z,3.35
2023-04-22T23:25:26.016Z,3.20
2023-04-22T23:27:54.696Z,3.40
2023-04-22T23:30:22.158Z,3.40
2023-04-22T23:32:49.630Z,3.35
2023-04-22T23:35:18.201Z,3.22
2023-04-22T23:37:45.747Z,3.70
2023-04-22T23:40:13.305Z,3.33
2023-04-22T23:42:40.579Z,3.28
2023-04-22T23:45:08.151Z,3.30
2023-04-22T23:47:35.535Z,3.40
2023-04-22T23:50:02.998Z,3.38
2023-04-22T23:52:30.205Z,3.50
2023-04-22T23:54:58.087Z,3.28
2023-04-22T23:57:25.357Z,3.28
2023-04-22T23:59:52.900Z,3.70
